createdAt,value
2022-11-16T00:01:40.390Z,99.90
2022-11-16T00:03:47.931Z,99.90
2022-11-16T00:05:59.978Z,99.90
2022-11-16T00:08:07.414Z,99.90
2022-11-16T00:10:15.057Z,99.90
2022-11-16T00:12:22.392Z,99.90
2022-11-16T00:14:30.396Z,99.90
2022-11-16T00:16:39.372Z,99.90
2022-11-16T00:18:46.449Z,99.90
2022-11-16T00:20:53.679Z,99.90
2022-11-16T00:23:00.502Z,99.90
2022-11-16T00:25:08.809Z,99.90
2022-11-16T00:27:15.786Z,99.90
2022-11-16T00:29:25.021Z,99.90
2022-11-16T00:31:31.891Z,99.90
2022-11-16T00:33:41.939Z,99.90
2022-11-16T00:35:48.966Z,99.90
2022-11-16T00:37:56.199Z,99.90
2022-11-16T00:40:03.073Z,99.90
2022-11-16T00:42:10.460Z,99.90
2022-11-16T00:44:17.436Z,99.90
2022-11-16T00:46:24.413Z,99.90
2022-11-16T00:48:31.864Z,99.90
2022-11-16T00:50:41.440Z,99.90
2022-11-16T00:52:48.927Z,99.90
2022-11-16T00:54:56.060Z,99.90
2022-11-16T00:57:03.649Z,99.90
2022-11-16T00:59:11.600Z,99.00
2022-11-16T01:01:21.728Z,98.60
2022-11-16T01:03:30.674Z,98.00
2022-11-16T01:05:39.752Z,97.70
2022-11-16T01:07:47.290Z,97.10
2022-11-16T01:09:54.625Z,96.80
2022-11-16T01:12:12.098Z,96.40
2022-11-16T01:14:19.380Z,95.90
2022-11-16T01:16:27.076Z,95.60
2022-11-16T01:18:34.799Z,95.40
2022-11-16T01:20:44.613Z,94.90
2022-11-16T01:22:51.742Z,94.30
2022-11-16T01:24:58.620Z,93.80
2022-11-16T01:27:05.749Z,93.60
2022-11-16T01:29:15.550Z,93.10
2022-11-16T01:31:28.363Z,92.90
2022-11-16T01:33:35.946Z,92.70
2022-11-16T01:35:47.195Z,91.90
2022-11-16T01:37:55.438Z,90.30
2022-11-16T01:40:03.208Z,90.60
2022-11-16T01:42:16.396Z,90.80
2022-11-16T01:44:59.418Z,90.80
2022-11-16T01:47:11.669Z,90.30
2022-11-16T01:49:22.280Z,90.40
2022-11-16T01:51:33.465Z,90.70
2022-11-16T01:53:41.151Z,90.00
2022-11-16T01:55:50.072Z,89.10
2022-11-16T01:58:05.550Z,88.70
2022-11-16T02:00:16.473Z,88.30
2022-11-16T02:02:35.465Z,88.20
2022-11-16T02:04:42.403Z,88.00
2022-11-16T02:07:06.230Z,87.70
2022-11-16T02:09:46.482Z,87.10
2022-11-16T02:12:11.991Z,87.00
2022-11-16T02:14:29.213Z,86.60
2022-11-16T02:16:47.912Z,85.80
2022-11-16T02:19:03.389Z,85.10
2022-11-16T02:21:24.547Z,84.80
2022-11-16T02:24:15.101Z,84.60
2022-11-16T02:26:38.412Z,83.80
2022-11-16T02:28:57.932Z,83.10
2022-11-16T02:31:09.724Z,82.90
2022-11-16T02:33:19.817Z,82.90
2022-11-16T02:35:32.328Z,81.90
2022-11-16T02:37:47.085Z,82.00
2022-11-16T02:40:00.921Z,81.20
2022-11-16T02:42:12.716Z,81.70
2022-11-16T02:44:24.244Z,81.70
2022-11-16T02:46:34.345Z,81.10
2022-11-16T02:48:45.008Z,81.50
2022-11-16T02:50:54.031Z,81.60
2022-11-16T02:53:01.368Z,81.30
2022-11-16T02:55:11.927Z,81.30
2022-11-16T02:57:40.257Z,80.50
2022-11-16T02:59:53.835Z,80.30
2022-11-16T03:02:07.782Z,79.60
2022-11-16T03:04:22.316Z,78.80
2022-11-16T03:06:34.530Z,79.20
2022-11-16T03:08:45.297Z,79.20
2022-11-16T03:11:12.805Z,78.70
2022-11-16T03:13:21.680Z,78.30
2022-11-16T03:15:29.672Z,78.70
2022-11-16T03:17:43.871Z,78.90
2022-11-16T03:19:58.841Z,78.80
2022-11-16T03:22:14.155Z,78.60
2022-11-16T03:24:21.389Z,78.20
2022-11-16T03:26:33.434Z,77.60
2022-11-16T03:29:04.321Z,77.10
2022-11-16T03:31:16.265Z,76.90
2022-11-16T03:33:26.220Z,76.30
2022-11-16T03:35:35.954Z,75.10
2022-11-16T03:37:45.594Z,75.50
2022-11-16T03:39:55.695Z,75.20
2022-11-16T03:42:05.442Z,74.90
2022-11-16T03:44:16.352Z,73.50
2022-11-16T03:46:25.437Z,74.10
2022-11-16T03:48:39.218Z,74.10
2022-11-16T03:50:56.134Z,73.70
2022-11-16T03:53:04.895Z,72.70
2022-11-16T03:55:13.413Z,72.90
2022-11-16T03:57:22.791Z,73.10
2022-11-16T03:59:34.477Z,72.90
2022-11-16T04:01:44.706Z,72.90
2022-11-16T04:03:55.652Z,72.20
2022-11-16T04:06:31.761Z,71.80
2022-11-16T04:08:55.430Z,71.40
2022-11-16T04:11:18.841Z,71.30
2022-11-16T04:13:47.526Z,71.70
2022-11-16T04:16:11.251Z,69.10
2022-11-16T04:18:35.972Z,68.90
2022-11-16T04:21:03.244Z,68.90
2022-11-16T04:23:32.286Z,68.90
2022-11-16T04:25:41.984Z,68.50
2022-11-16T04:28:12.969Z,69.70
2022-11-16T04:30:24.245Z,69.70
2022-11-16T04:32:48.066Z,69.50
2022-11-16T04:35:12.863Z,68.70
2022-11-16T04:37:38.987Z,68.60
2022-11-16T04:39:46.169Z,69.10
2022-11-16T04:42:10.196Z,69.30
2022-11-16T04:44:17.071Z,69.30
2022-11-16T04:46:42.477Z,68.10
2022-11-16T04:48:49.461Z,67.70
2022-11-16T04:50:57.100Z,67.60
2022-11-16T04:53:06.941Z,67.40
2022-11-16T04:55:22.512Z,67.80
2022-11-16T04:57:31.015Z,67.90
2022-11-16T04:59:38.520Z,68.00
2022-11-16T05:02:01.832Z,68.10
2022-11-16T05:04:09.884Z,67.40
2022-11-16T05:06:17.942Z,67.60
2022-11-16T05:08:27.013Z,67.50
2022-11-16T05:10:35.321Z,67.70
2022-11-16T05:12:43.473Z,66.00
2022-11-16T05:14:51.119Z,66.90
2022-11-16T05:16:59.158Z,66.30
2022-11-16T05:19:22.890Z,66.20
2022-11-16T05:21:30.326Z,65.90
2022-11-16T05:23:55.375Z,65.90
2022-11-16T05:26:05.948Z,66.20
2022-11-16T05:28:13.222Z,66.40
2022-11-16T05:30:21.477Z,66.60
2022-11-16T05:32:30.151Z,65.90
2022-11-16T05:34:39.492Z,66.10
2022-11-16T05:36:46.813Z,65.90
2022-11-16T05:38:56.452Z,66.10
2022-11-16T05:41:07.112Z,65.80
2022-11-16T05:43:14.553Z,65.20
2022-11-16T05:45:30.800Z,65.10
2022-11-16T05:47:39.666Z,65.60
2022-11-16T05:49:47.669Z,64.70
2022-11-16T05:51:55.261Z,64.20
2022-11-16T05:54:05.258Z,64.30
2022-11-16T05:56:13.404Z,64.90
2022-11-16T05:58:22.233Z,65.20
2022-11-16T06:00:30.644Z,64.00
2022-11-16T06:02:39.226Z,64.30
2022-11-16T06:04:46.338Z,63.20
2022-11-16T06:06:53.766Z,63.60
2022-11-16T06:09:01.467Z,64.30
2022-11-16T06:11:13.513Z,63.70
2022-11-16T06:13:20.448Z,63.50
2022-11-16T06:15:30.439Z,63.80
2022-11-16T06:17:38.135Z,63.30
2022-11-16T06:19:45.619Z,62.30
2022-11-16T06:21:52.801Z,62.80
2022-11-16T06:24:01.422Z,63.30
2022-11-16T06:26:12.335Z,63.40
2022-11-16T06:28:20.590Z,64.10
2022-11-16T06:30:28.544Z,61.40
2022-11-16T06:32:35.985Z,61.70
2022-11-16T06:34:44.493Z,62.40
2022-11-16T06:36:52.287Z,61.00
2022-11-16T06:39:02.974Z,60.90
2022-11-16T06:41:16.382Z,61.20
2022-11-16T06:43:28.100Z,62.20
2022-11-16T06:45:35.822Z,63.10
2022-11-16T06:47:42.787Z,61.70
2022-11-16T06:49:50.174Z,61.30
2022-11-16T06:52:01.147Z,60.30
2022-11-16T06:54:09.258Z,61.40
2022-11-16T06:56:18.888Z,60.60
2022-11-16T06:58:33.524Z,59.40
2022-11-16T07:00:40.880Z,60.90
2022-11-16T07:02:49.905Z,60.50
2022-11-16T07:05:03.319Z,60.60
2022-11-16T07:07:12.637Z,58.80
2022-11-16T07:09:19.949Z,60.00
2022-11-16T07:11:29.588Z,59.50
2022-11-16T07:13:38.817Z,59.80
2022-11-16T07:15:48.765Z,59.90
2022-11-16T07:17:55.897Z,59.40
2022-11-16T07:20:03.284Z,59.80
2022-11-16T07:22:10.102Z,60.00
2022-11-16T07:24:17.748Z,60.10
2022-11-16T07:26:24.825Z,60.10
2022-11-16T07:28:48.483Z,60.60
2022-11-16T07:31:03.611Z,58.60
2022-11-16T07:33:11.800Z,58.60
2022-11-16T07:35:37.020Z,59.10
2022-11-16T07:37:44.358Z,58.90
2022-11-16T07:39:54.153Z,58.50
2022-11-16T07:42:03.311Z,59.10
2022-11-16T07:44:31.961Z,58.90
2022-11-16T07:46:47.788Z,58.70
2022-11-16T07:48:55.936Z,57.50
2022-11-16T07:51:22.018Z,58.30
2022-11-16T07:53:49.075Z,57.70
2022-11-16T07:55:57.073Z,59.20
2022-11-16T07:58:06.099Z,58.80
2022-11-16T08:00:16.355Z,58.20
2022-11-16T08:02:31.169Z,58.00
2022-11-16T08:04:40.387Z,57.40
2022-11-16T08:06:51.174Z,58.00
2022-11-16T08:09:00.592Z,58.90
2022-11-16T08:11:10.435Z,58.50
2022-11-16T08:13:17.810Z,59.00
2022-11-16T08:15:27.146Z,58.60
2022-11-16T08:17:34.949Z,57.40
2022-11-16T08:19:45.049Z,57.80
2022-11-16T08:21:54.934Z,57.90
2022-11-16T08:24:02.231Z,57.60
2022-11-16T08:26:12.073Z,56.90
2022-11-16T08:28:19.509Z,57.10
2022-11-16T08:30:28.795Z,57.00
2022-11-16T08:32:36.279Z,57.40
2022-11-16T08:34:43.769Z,58.30
2022-11-16T08:36:51.258Z,58.10
2022-11-16T08:39:03.509Z,58.60
2022-11-16T08:41:12.889Z,59.10
2022-11-16T08:43:20.022Z,59.30
2022-11-16T08:45:30.530Z,59.30
2022-11-16T08:47:37.509Z,60.20
2022-11-16T08:49:49.552Z,60.30
2022-11-16T08:51:59.091Z,61.00
2022-11-16T08:54:07.398Z,61.30
2022-11-16T08:56:16.886Z,61.80
2022-11-16T08:58:24.494Z,62.50
2022-11-16T09:00:33.346Z,62.60
2022-11-16T09:02:40.683Z,62.70
2022-11-16T09:04:47.606Z,63.20
2022-11-16T09:06:55.966Z,63.40
2022-11-16T09:09:03.407Z,63.40
2022-11-16T09:11:12.377Z,63.40
2022-11-16T09:13:19.507Z,63.20
2022-11-16T09:15:26.793Z,62.80
2022-11-16T09:17:35.407Z,63.00
2022-11-16T09:19:42.794Z,62.90
2022-11-16T09:21:49.823Z,62.80
2022-11-16T09:23:58.231Z,62.60
2022-11-16T09:26:06.131Z,62.90
2022-11-16T09:28:13.465Z,63.10
2022-11-16T09:30:20.802Z,63.30
2022-11-16T09:32:28.137Z,63.20
2022-11-16T09:34:37.929Z,63.20
2022-11-16T09:36:45.365Z,63.80
2022-11-16T09:41:39.255Z,64.60
2022-11-16T09:43:56.320Z,64.90
2022-11-16T09:46:09.133Z,64.50
2022-11-16T09:48:18.772Z,64.20
2022-11-16T09:50:42.394Z,64.40
2022-11-16T09:52:54.487Z,64.50
2022-11-16T09:55:04.534Z,65.10
2022-11-16T09:57:15.578Z,65.30
2022-11-16T09:59:28.266Z,65.40
2022-11-16T10:01:40.262Z,65.70
2022-11-16T10:03:52.104Z,65.90
2022-11-16T10:06:06.102Z,66.00
2022-11-16T10:08:21.403Z,66.20
2022-11-16T10:10:37.608Z,66.50
2022-11-16T10:12:49.656Z,66.80
2022-11-16T10:15:29.657Z,67.10
2022-11-16T10:17:50.254Z,67.30
2022-11-16T10:20:00.101Z,67.40
2022-11-16T10:22:20.947Z,67.60
2022-11-16T10:24:37.703Z,68.00
2022-11-16T10:26:52.617Z,68.70
2022-11-16T10:29:34.767Z,69.10
2022-11-16T10:31:52.549Z,69.30
2022-11-16T10:34:02.293Z,70.80
2022-11-16T10:36:14.604Z,70.90
2022-11-16T10:38:25.974Z,72.60
2022-11-16T10:40:33.095Z,73.30
2022-11-16T10:42:41.260Z,72.50
2022-11-16T10:44:51.715Z,72.80
2022-11-16T10:47:04.784Z,73.00
2022-11-16T10:49:21.850Z,73.00
2022-11-16T10:51:28.829Z,73.70
2022-11-16T10:53:40.204Z,74.50
2022-11-16T10:55:47.179Z,75.90
2022-11-16T10:58:04.605Z,76.00
2022-11-16T11:00:21.111Z,76.20
2022-11-16T11:02:37.960Z,75.90
2022-11-16T11:05:01.220Z,75.80
2022-11-16T11:07:27.115Z,76.00
2022-11-16T11:09:37.600Z,77.10
2022-11-16T11:12:20.009Z,77.60
2022-11-16T11:14:27.392Z,78.30
2022-11-16T11:16:34.778Z,78.00
2022-11-16T11:18:42.116Z,78.10
2022-11-16T11:20:52.216Z,78.40
2022-11-16T11:23:01.690Z,79.00
2022-11-16T11:25:23.271Z,78.40
2022-11-16T11:27:32.090Z,78.90
2022-11-16T11:29:40.620Z,79.90
2022-11-16T11:31:50.409Z,79.30
2022-11-16T11:34:00.240Z,79.70
2022-11-16T11:36:14.189Z,80.30
2022-11-16T11:38:21.449Z,80.80
2022-11-16T11:40:31.737Z,81.20
2022-11-16T11:42:42.227Z,81.70
2022-11-16T11:44:55.636Z,81.70
2022-11-16T11:47:56.223Z,81.90
2022-11-16T11:49:55.895Z,82.50
2022-11-16T11:54:35.194Z,82.70
2022-11-16T11:56:44.420Z,82.70
2022-11-16T11:58:52.729Z,83.10
2022-11-16T12:01:23.745Z,83.60
2022-11-16T12:03:58.655Z,84.00
2022-11-16T12:06:13.012Z,84.40
2022-11-16T12:08:36.175Z,84.00
2022-11-16T12:11:11.448Z,84.30
2022-11-16T12:13:47.147Z,84.20
2022-11-16T12:16:09.895Z,84.30
2022-11-16T12:18:35.352Z,84.00
2022-11-16T12:20:50.934Z,84.00
2022-11-16T12:23:23.152Z,84.20
2022-11-16T12:25:40.421Z,84.90
2022-11-16T12:27:56.818Z,84.70
2022-11-16T12:30:10.861Z,85.00
2022-11-16T12:32:44.974Z,85.20
2022-11-16T12:35:20.261Z,86.00
2022-11-16T12:37:32.871Z,86.40
2022-11-16T12:39:44.818Z,86.10
2022-11-16T12:42:19.285Z,86.00
2022-11-16T12:44:36.859Z,86.50
2022-11-16T12:46:53.669Z,86.40
2022-11-16T12:49:28.500Z,86.20
2022-11-16T12:51:55.036Z,86.60
2022-11-16T12:56:52.664Z,87.10
2022-11-16T12:59:34.683Z,87.00
2022-11-16T13:01:48.759Z,87.30
2022-11-16T13:03:58.430Z,87.30
2022-11-16T13:06:10.029Z,87.50
2022-11-16T13:08:23.916Z,87.80
2022-11-16T13:10:33.965Z,88.30
2022-11-16T13:12:42.017Z,88.70
2022-11-16T13:14:52.171Z,88.90
2022-11-16T13:17:00.324Z,89.10
2022-11-16T13:19:10.320Z,89.20
2022-11-16T13:21:31.376Z,89.30
2022-11-16T13:23:51.109Z,89.80
2022-11-16T13:26:04.890Z,90.20
2022-11-16T13:28:20.825Z,90.00
2022-11-16T13:30:31.898Z,90.30
2022-11-16T13:33:09.802Z,90.40
2022-11-16T13:35:18.826Z,91.00
2022-11-16T13:37:52.018Z,90.60
2022-11-16T13:40:29.867Z,90.90
2022-11-16T13:42:39.302Z,90.50
2022-11-16T13:44:51.446Z,90.00
2022-11-16T13:47:05.238Z,89.70
2022-11-16T13:49:29.418Z,90.00
2022-11-16T13:51:36.700Z,90.80
2022-11-16T13:54:43.537Z,90.90
2022-11-16T13:56:22.971Z,91.00
2022-11-16T13:58:35.705Z,90.60
2022-11-16T14:00:44.388Z,90.50
2022-11-16T14:02:51.622Z,90.70
2022-11-16T14:05:00.445Z,90.90
2022-11-16T14:07:07.770Z,91.00
2022-11-16T14:09:44.912Z,91.30
2022-11-16T14:11:52.196Z,92.30
2022-11-16T14:13:59.225Z,92.20
2022-11-16T14:16:38.357Z,92.40
2022-11-16T14:18:45.586Z,92.40
2022-11-16T14:21:05.929Z,92.40
2022-11-16T14:23:30.630Z,92.30
2022-11-16T14:25:45.534Z,92.40
2022-11-16T14:27:58.554Z,92.00
2022-11-16T14:30:23.915Z,92.10
2022-11-16T14:32:38.283Z,92.20
2022-11-16T14:34:51.942Z,92.50
2022-11-16T14:37:00.509Z,92.40
2022-11-16T14:39:30.276Z,92.90
2022-11-16T14:41:39.246Z,93.60
2022-11-16T14:43:50.723Z,93.70
2022-11-16T14:46:02.464Z,93.80
2022-11-16T14:48:17.841Z,94.10
2022-11-16T14:50:28.039Z,94.10
2022-11-16T14:52:41.722Z,94.00
2022-11-16T14:54:55.459Z,93.70
2022-11-16T14:57:06.223Z,93.60
2022-11-16T14:59:20.777Z,93.40
2022-11-16T15:01:30.471Z,93.20
2022-11-16T15:03:42.345Z,93.10
2022-11-16T15:05:50.002Z,93.10
2022-11-16T15:07:58.571Z,93.10
2022-11-16T15:10:06.550Z,93.20
2022-11-16T15:12:38.017Z,93.50
2022-11-16T15:14:50.424Z,93.80
2022-11-16T15:16:58.882Z,93.90
2022-11-16T15:19:06.883Z,93.60
2022-11-16T15:21:25.384Z,93.50
2022-11-16T15:23:32.893Z,93.40
2022-11-16T15:25:43.437Z,93.30
2022-11-16T15:27:52.302Z,93.30
2022-11-16T15:29:59.180Z,93.20
2022-11-16T15:32:06.460Z,93.20
2022-11-16T15:34:15.436Z,93.20
2022-11-16T15:36:35.927Z,93.30
2022-11-16T15:38:42.907Z,93.40
2022-11-16T15:40:53.466Z,93.40
2022-11-16T15:43:03.363Z,93.70
2022-11-16T15:45:21.045Z,93.90
2022-11-16T15:47:29.090Z,94.20
2022-11-16T15:49:39.397Z,94.40
2022-11-16T15:51:47.396Z,94.30
2022-11-16T15:53:55.652Z,94.20
2022-11-16T15:56:02.828Z,94.20
2022-11-16T15:58:18.362Z,94.10
2022-11-16T16:00:27.592Z,94.00
2022-11-16T16:02:36.053Z,93.70
2022-11-16T16:04:45.490Z,93.70
2022-11-16T16:06:54.587Z,93.70
2022-11-16T16:09:08.966Z,93.70
2022-11-16T16:11:30.278Z,93.90
2022-11-16T16:13:41.201Z,94.30
2022-11-16T16:15:48.738Z,94.60
2022-11-16T16:17:57.046Z,94.80
2022-11-16T16:20:05.509Z,94.70
2022-11-16T16:22:26.665Z,94.80
2022-11-16T16:24:43.371Z,94.80
2022-11-16T16:26:50.197Z,94.60
2022-11-16T16:28:59.066Z,94.50
2022-11-16T16:31:06.042Z,94.50
2022-11-16T16:33:23.004Z,94.40
2022-11-16T16:35:30.393Z,94.20
2022-11-16T16:37:38.492Z,94.00
2022-11-16T16:39:45.473Z,93.80
2022-11-16T16:41:52.704Z,93.70
2022-11-16T16:44:01.420Z,93.50
2022-11-16T16:46:09.067Z,93.30
2022-11-16T16:48:16.143Z,93.20
2022-11-16T16:50:23.327Z,93.10
2022-11-16T16:52:30.203Z,92.90
2022-11-16T16:54:37.587Z,93.00
2022-11-16T16:56:44.817Z,93.10
2022-11-16T16:58:52.051Z,93.30
2022-11-16T17:01:01.601Z,93.80
2022-11-16T17:03:09.231Z,94.00
2022-11-16T17:05:16.260Z,94.20
2022-11-16T17:07:23.672Z,94.30
2022-11-16T17:09:30.622Z,94.50
2022-11-16T17:11:38.058Z,94.80
2022-11-16T17:13:45.093Z,95.00
2022-11-16T17:15:52.374Z,95.40
2022-11-16T17:18:01.755Z,95.60
2022-11-16T17:20:10.013Z,95.40
2022-11-16T17:22:17.348Z,95.40
2022-11-16T17:24:24.785Z,95.20
2022-11-16T17:26:31.663Z,95.20
2022-11-16T17:28:38.890Z,94.80
2022-11-16T17:30:45.713Z,94.60
2022-11-16T17:32:53.262Z,94.70
2022-11-16T17:35:01.973Z,94.50
2022-11-16T17:37:08.951Z,94.30
2022-11-16T17:39:16.901Z,94.60
2022-11-16T17:41:26.639Z,94.90
2022-11-16T17:43:33.700Z,95.00
2022-11-16T17:45:41.110Z,95.20
2022-11-16T17:47:48.031Z,95.20
2022-11-16T17:49:55.110Z,95.00
2022-11-16T17:52:03.931Z,94.90
2022-11-16T17:54:11.214Z,94.70
2022-11-16T17:56:19.982Z,94.70
2022-11-16T17:58:27.114Z,94.70
2022-11-16T18:00:33.992Z,95.00
2022-11-16T18:02:41.219Z,94.90
2022-11-16T18:04:51.036Z,95.00
2022-11-16T18:07:00.729Z,95.00
2022-11-16T18:09:09.475Z,95.10
2022-11-16T18:11:18.139Z,95.20
2022-11-16T18:13:24.961Z,95.20
2022-11-16T18:15:32.043Z,94.80
2022-11-16T18:17:39.173Z,94.60
2022-11-16T18:19:46.304Z,94.70
2022-11-16T18:21:53.229Z,94.80
2022-11-16T18:24:03.841Z,94.90
2022-11-16T18:26:13.889Z,94.90
2022-11-16T18:28:21.788Z,95.00
2022-11-16T18:30:29.072Z,94.80
2022-11-16T18:32:37.482Z,94.80
2022-11-16T18:34:44.367Z,94.90
2022-11-16T18:36:51.948Z,94.80
2022-11-16T18:38:59.029Z,94.70
2022-11-16T18:41:17.165Z,94.70
2022-11-16T18:43:24.142Z,94.60
2022-11-16T18:45:31.426Z,94.50
2022-11-16T18:47:38.506Z,94.20
2022-11-16T18:49:45.739Z,94.00
2022-11-16T18:51:52.716Z,94.00
2022-11-16T18:54:00.212Z,94.00
2022-11-16T18:56:07.643Z,94.00
2022-11-16T18:58:35.856Z,93.90
2022-11-16T19:00:43.352Z,93.90
2022-11-16T19:02:50.648Z,93.60
2022-11-16T19:04:57.974Z,93.10
2022-11-16T19:07:04.894Z,92.90
2022-11-16T19:09:12.441Z,93.00
2022-11-16T19:11:19.930Z,93.20
2022-11-16T19:13:29.466Z,93.30
2022-11-16T19:15:36.545Z,93.10
2022-11-16T19:17:59.561Z,93.00
2022-11-16T19:20:12.005Z,92.90
2022-11-16T19:22:19.288Z,92.70
2022-11-16T19:24:26.416Z,92.70
2022-11-16T19:26:33.701Z,92.60
2022-11-16T19:28:43.089Z,92.60
2022-11-16T19:30:50.269Z,92.80
2022-11-16T19:33:00.522Z,92.60
2022-11-16T19:35:08.367Z,92.50
2022-11-16T19:37:16.112Z,92.40
2022-11-16T19:39:23.346Z,92.50
2022-11-16T19:41:31.089Z,92.50
2022-11-16T19:43:38.581Z,92.30
2022-11-16T19:45:47.193Z,92.40
2022-11-16T19:47:54.578Z,92.50
2022-11-16T19:50:01.461Z,92.80
2022-11-16T19:52:08.532Z,93.00
2022-11-16T19:54:16.123Z,93.10
2022-11-16T19:56:24.124Z,93.10
2022-11-16T19:58:32.103Z,93.40
2022-11-16T20:00:38.979Z,93.40
2022-11-16T20:02:47.820Z,93.40
2022-11-16T20:04:54.796Z,93.50
2022-11-16T20:07:02.129Z,93.60
2022-11-16T20:09:13.103Z,93.50
2022-11-16T20:11:21.665Z,93.00
2022-11-16T20:13:28.848Z,92.80
2022-11-16T20:15:35.979Z,92.70
2022-11-16T20:17:42.804Z,92.70
2022-11-16T20:19:51.722Z,92.70
2022-11-16T20:22:00.850Z,92.80
2022-11-16T20:24:09.773Z,93.00
2022-11-16T20:26:18.440Z,93.10
2022-11-16T20:28:25.466Z,93.10
2022-11-16T20:30:32.649Z,93.20
2022-11-16T20:32:39.472Z,93.20
2022-11-16T20:34:46.705Z,93.10
2022-11-16T20:36:55.212Z,93.10
2022-11-16T20:39:02.965Z,93.10
2022-11-16T20:41:16.697Z,93.00
2022-11-16T20:43:23.878Z,92.90
2022-11-16T20:45:31.013Z,93.30
2022-11-16T20:47:38.087Z,93.40
2022-11-16T20:49:48.908Z,93.40
2022-11-16T20:51:57.878Z,93.50
2022-11-16T20:54:04.856Z,93.50
2022-11-16T20:56:12.914Z,93.50
2022-11-16T20:58:22.748Z,93.30
2022-11-16T21:00:30.189Z,93.00
2022-11-16T21:02:37.166Z,93.00
2022-11-16T21:04:44.452Z,93.10
2022-11-16T21:06:51.486Z,93.40
2022-11-16T21:09:00.805Z,93.60
2022-11-16T21:11:13.985Z,93.80
2022-11-16T21:13:39.135Z,94.00
2022-11-16T21:15:46.011Z,94.00
2022-11-16T21:17:53.296Z,94.10
2022-11-16T21:20:25.849Z,94.10
2022-11-16T21:22:32.142Z,94.00
2022-11-16T21:24:41.415Z,93.90
2022-11-16T21:26:48.797Z,93.90
2022-11-16T21:28:56.287Z,93.90
2022-11-16T21:31:04.854Z,93.80
2022-11-16T21:33:11.981Z,93.70
2022-11-16T21:35:19.421Z,93.90
2022-11-16T21:37:26.192Z,93.90
2022-11-16T21:39:33.271Z,93.90
2022-11-16T21:41:41.795Z,93.90
2022-11-16T21:43:49.532Z,93.80
2022-11-16T21:45:56.557Z,93.60
2022-11-16T21:48:03.995Z,93.70
2022-11-16T21:52:38.635Z,93.40
2022-11-16T21:54:56.975Z,93.40
2022-11-16T21:57:05.846Z,93.50
2022-11-16T21:59:12.772Z,93.60
2022-11-16T22:01:19.915Z,93.60
2022-11-16T22:03:26.880Z,93.70
2022-11-16T22:05:50.190Z,93.70
2022-11-16T22:07:55.683Z,93.70
2022-11-16T22:10:03.582Z,93.60
2022-11-16T22:12:12.349Z,93.30
2022-11-16T22:14:19.787Z,93.10
2022-11-16T22:16:27.022Z,93.10
2022-11-16T22:18:35.736Z,93.10
2022-11-16T22:20:42.662Z,93.30
2022-11-16T22:22:49.998Z,93.30
2022-11-16T22:24:57.079Z,93.20
2022-11-16T22:27:04.770Z,93.20
2022-11-16T22:29:13.438Z,93.30
2022-11-16T22:31:21.387Z,93.40
2022-11-16T22:33:28.285Z,93.70
2022-11-16T22:35:35.396Z,93.80
2022-11-16T22:37:43.291Z,93.80
2022-11-16T22:39:50.471Z,93.80
2022-11-16T22:41:57.398Z,93.90
2022-11-16T22:44:04.429Z,93.90
2022-11-16T22:46:14.679Z,93.90
2022-11-16T22:48:22.015Z,93.80
2022-11-16T22:50:29.196Z,93.90
2022-11-16T22:52:36.224Z,94.20
2022-11-16T22:54:43.355Z,94.30
2022-11-16T22:56:50.589Z,94.50
2022-11-16T22:58:57.875Z,94.60
2022-11-16T23:01:04.853Z,94.60
2022-11-16T23:03:13.808Z,94.70
2022-11-16T23:05:20.799Z,94.60
2022-11-16T23:07:28.317Z,94.80
2022-11-16T23:09:35.470Z,95.20
2022-11-16T23:11:59.453Z,95.70
2022-11-16T23:14:24.204Z,96.30
2022-11-16T23:16:31.730Z,96.50
2022-11-16T23:18:40.445Z,96.50
2022-11-16T23:21:04.114Z,96.90
2022-11-16T23:23:35.119Z,96.80
2022-11-16T23:25:59.183Z,97.00
2022-11-16T23:28:09.589Z,97.10
2022-11-16T23:30:17.438Z,96.70
2022-11-16T23:32:24.464Z,96.40
2022-11-16T23:34:33.591Z,96.40
2022-11-16T23:36:41.030Z,96.40
2022-11-16T23:38:48.263Z,96.70
2022-11-16T23:40:58.159Z,96.70
2022-11-16T23:43:21.927Z,96.40
2022-11-16T23:45:28.802Z,96.40
2022-11-16T23:47:36.040Z,96.50
2022-11-16T23:49:44.855Z,96.40
2022-11-16T23:51:51.781Z,96.70
2022-11-16T23:53:59.270Z,96.90
2022-11-16T23:56:06.416Z,97.30
2022-11-16T23:58:15.936Z,97.00
